sensor_id;sensor_type;location;lat;lon;timestamp;P1;durP1;ratioP1;P2;durP2;ratioP2
17177;SDS011;8704;52.006;4.374;2023-06-19T00:02:25;3.08;;;1.50;;
17177;SDS011;8704;52.006;4.374;2023-06-19T00:04:53;4.35;;;1.75;;
17177;SDS011;8704;52.006;4.374;2023-06-19T00:07:21;4.72;;;1.67;;
17177;SDS011;8704;52.006;4.374;2023-06-19T00:09:49;3.25;;;1.85;;
17177;SDS011;8704;52.006;4.374;2023-06-19T00:12:17;5.03;;;2.20;;
17177;SDS011;8704;52.006;4.374;2023-06-19T00:14:45;3.67;;;2.30;;
17177;SDS011;8704;52.006;4.374;2023-06-19T00:17:15;6.65;;;2.47;;
17177;SDS011;8704;52.006;4.374;2023-06-19T00:19:43;6.32;;;2.95;;
17177;SDS011;8704;52.006;4.374;2023-06-19T00:22:11;7.18;;;3.15;;
17177;SDS011;8704;52.006;4.374;2023-06-19T00:24:39;4.70;;;3.08;;
17177;SDS011;8704;52.006;4.374;2023-06-19T00:27:07;5.65;;;3.70;;
17177;SDS011;8704;52.006;4.374;2023-06-19T00:29:35;3.97;;;3.17;;
17177;SDS011;8704;52.006;4.374;2023-06-19T00:32:04;4.82;;;3.55;;
17177;SDS011;8704;52.006;4.374;2023-06-19T00:34:34;5.10;;;3.72;;
17177;SDS011;8704;52.006;4.374;2023-06-19T00:37:03;5.05;;;3.97;;
17177;SDS011;8704;52.006;4.374;2023-06-19T00:39:32;7.35;;;3.70;;
17177;SDS011;8704;52.006;4.374;2023-06-19T00:42:00;6.13;;;3.42;;
17177;SDS011;8704;52.006;4.374;2023-06-19T00:44:28;4.00;;;3.30;;
17177;SDS011;8704;52.006;4.374;2023-06-19T00:46:56;4.32;;;3.05;;
17177;SDS011;8704;52.006;4.374;2023-06-19T00:49:26;5.05;;;3.22;;
17177;SDS011;8704;52.006;4.374;2023-06-19T00:51:57;7.03;;;3.55;;
17177;SDS011;8704;52.006;4.374;2023-06-19T00:54:25;5.85;;;3.72;;
17177;SDS011;8704;52.006;4.374;2023-06-19T00:56:53;5.45;;;3.53;;
17177;SDS011;8704;52.006;4.374;2023-06-19T00:59:21;7.13;;;3.70;;
17177;SDS011;8704;52.006;4.374;2023-06-19T01:01:49;6.32;;;4.20;;
17177;SDS011;8704;52.006;4.374;2023-06-19T01:04:17;6.13;;;4.85;;
17177;SDS011;8704;52.006;4.374;2023-06-19T01:06:57;6.82;;;4.60;;
17177;SDS011;8704;52.006;4.374;2023-06-19T01:09:37;7.47;;;4.60;;
17177;SDS011;8704;52.006;4.374;2023-06-19T01:12:10;10.63;;;5.30;;
17177;SDS011;8704;52.006;4.374;2023-06-19T01:14:43;7.43;;;4.85;;
17177;SDS011;8704;52.006;4.374;2023-06-19T01:17:15;6.15;;;5.55;;
17177;SDS011;8704;52.006;4.374;2023-06-19T01:19:43;7.65;;;6.20;;
17177;SDS011;8704;52.006;4.374;2023-06-19T01:22:23;7.75;;;6.10;;
17177;SDS011;8704;52.006;4.374;2023-06-19T01:24:52;7.82;;;6.72;;
17177;SDS011;8704;52.006;4.374;2023-06-19T01:27:20;8.00;;;7.07;;
17177;SDS011;8704;52.006;4.374;2023-06-19T01:29:48;8.65;;;7.38;;
17177;SDS011;8704;52.006;4.374;2023-06-19T01:32:18;9.75;;;8.40;;
17177;SDS011;8704;52.006;4.374;2023-06-19T01:34:50;9.30;;;8.40;;
17177;SDS011;8704;52.006;4.374;2023-06-19T01:37:22;9.60;;;8.40;;
17177;SDS011;8704;52.006;4.374;2023-06-19T01:39:54;11.43;;;9.80;;
17177;SDS011;8704;52.006;4.374;2023-06-19T01:42:24;10.55;;;9.43;;
17177;SDS011;8704;52.006;4.374;2023-06-19T01:44:53;10.02;;;8.80;;
17177;SDS011;8704;52.006;4.374;2023-06-19T01:47:21;10.82;;;9.45;;
17177;SDS011;8704;52.006;4.374;2023-06-19T01:49:49;12.23;;;11.02;;
17177;SDS011;8704;52.006;4.374;2023-06-19T01:52:17;11.50;;;10.18;;
17177;SDS011;8704;52.006;4.374;2023-06-19T01:54:46;10.60;;;9.52;;
17177;SDS011;8704;52.006;4.374;2023-06-19T01:57:14;12.63;;;10.00;;
17177;SDS011;8704;52.006;4.374;2023-06-19T01:59:42;11.02;;;9.93;;
17177;SDS011;8704;52.006;4.374;2023-06-19T02:02:10;11.95;;;10.75;;
17177;SDS011;8704;52.006;4.374;2023-06-19T02:04:38;14.77;;;12.18;;
17177;SDS011;8704;52.006;4.374;2023-06-19T02:07:06;14.15;;;12.70;;
17177;SDS011;8704;52.006;4.374;2023-06-19T02:09:34;13.65;;;11.65;;
17177;SDS011;8704;52.006;4.374;2023-06-19T02:12:03;16.63;;;14.90;;
17177;SDS011;8704;52.006;4.374;2023-06-19T02:14:32;16.38;;;14.63;;
17177;SDS011;8704;52.006;4.374;2023-06-19T02:16:59;18.25;;;16.40;;
17177;SDS011;8704;52.006;4.374;2023-06-19T02:19:28;20.27;;;18.23;;
17177;SDS011;8704;52.006;4.374;2023-06-19T02:21:56;22.35;;;19.98;;
17177;SDS011;8704;52.006;4.374;2023-06-19T02:24:24;29.63;;;24.85;;
17177;SDS011;8704;52.006;4.374;2023-06-19T02:26:52;31.98;;;28.00;;
17177;SDS011;8704;52.006;4.374;2023-06-19T02:29:21;35.30;;;30.63;;
17177;SDS011;8704;52.006;4.374;2023-06-19T02:31:49;34.33;;;30.45;;
17177;SDS011;8704;52.006;4.374;2023-06-19T02:34:17;40.95;;;33.95;;
17177;SDS011;8704;52.006;4.374;2023-06-19T02:36:45;42.55;;;34.35;;
17177;SDS011;8704;52.006;4.374;2023-06-19T02:39:13;41.03;;;35.15;;
17177;SDS011;8704;52.006;4.374;2023-06-19T02:41:41;39.50;;;32.88;;
17177;SDS011;8704;52.006;4.374;2023-06-19T02:44:12;36.30;;;31.40;;
17177;SDS011;8704;52.006;4.374;2023-06-19T02:46:42;31.92;;;28.52;;
17177;SDS011;8704;52.006;4.374;2023-06-19T02:49:10;30.35;;;27.15;;
17177;SDS011;8704;52.006;4.374;2023-06-19T02:51:38;29.33;;;24.23;;
17177;SDS011;8704;52.006;4.374;2023-06-19T02:54:07;21.83;;;19.08;;
17177;SDS011;8704;52.006;4.374;2023-06-19T02:56:36;17.88;;;16.10;;
17177;SDS011;8704;52.006;4.374;2023-06-19T02:59:05;16.75;;;15.05;;
17177;SDS011;8704;52.006;4.374;2023-06-19T03:01:33;16.73;;;14.93;;
17177;SDS011;8704;52.006;4.374;2023-06-19T03:04:03;18.70;;;16.77;;
17177;SDS011;8704;52.006;4.374;2023-06-19T03:06:31;21.92;;;19.73;;
17177;SDS011;8704;52.006;4.374;2023-06-19T03:08:59;26.30;;;22.85;;
17177;SDS011;8704;52.006;4.374;2023-06-19T03:11:27;29.00;;;26.00;;
17177;SDS011;8704;52.006;4.374;2023-06-19T03:13:55;35.83;;;31.77;;
17177;SDS011;8704;52.006;4.374;2023-06-19T03:16:23;37.47;;;33.28;;
17177;SDS011;8704;52.006;4.374;2023-06-19T03:18:52;48.90;;;39.85;;
17177;SDS011;8704;52.006;4.374;2023-06-19T03:21:21;45.15;;;38.50;;
17177;SDS011;8704;52.006;4.374;2023-06-19T03:23:49;43.85;;;37.22;;
17177;SDS011;8704;52.006;4.374;2023-06-19T03:26:18;45.72;;;38.97;;
17177;SDS011;8704;52.006;4.374;2023-06-19T03:28:46;43.53;;;36.40;;
17177;SDS011;8704;52.006;4.374;2023-06-19T03:31:14;41.53;;;35.47;;
17177;SDS011;8704;52.006;4.374;2023-06-19T03:33:42;43.33;;;34.10;;
17177;SDS011;8704;52.006;4.374;2023-06-19T03:36:10;32.75;;;28.90;;
17177;SDS011;8704;52.006;4.374;2023-06-19T03:38:39;33.25;;;27.88;;
17177;SDS011;8704;52.006;4.374;2023-06-19T03:41:07;29.88;;;26.48;;
17177;SDS011;8704;52.006;4.374;2023-06-19T03:43:35;26.60;;;23.27;;
17177;SDS011;8704;52.006;4.374;2023-06-19T03:46:03;25.98;;;22.90;;
17177;SDS011;8704;52.006;4.374;2023-06-19T03:48:31;26.70;;;22.40;;
17177;SDS011;8704;52.006;4.374;2023-06-19T03:50:59;24.70;;;20.30;;
17177;SDS011;8704;52.006;4.374;2023-06-19T03:53:27;21.35;;;19.10;;
17177;SDS011;8704;52.006;4.374;2023-06-19T03:55:56;18.83;;;16.25;;
17177;SDS011;8704;52.006;4.374;2023-06-19T03:58:25;17.70;;;15.35;;
17177;SDS011;8704;52.006;4.374;2023-06-19T04:00:52;16.77;;;13.93;;
17177;SDS011;8704;52.006;4.374;2023-06-19T04:03:20;17.05;;;13.15;;
17177;SDS011;8704;52.006;4.374;2023-06-19T04:05:49;17.73;;;14.10;;
17177;SDS011;8704;52.006;4.374;2023-06-19T04:08:17;16.50;;;14.68;;
17177;SDS011;8704;52.006;4.374;2023-06-19T04:10:45;14.85;;;13.40;;
17177;SDS011;8704;52.006;4.374;2023-06-19T04:13:14;14.68;;;13.07;;
17177;SDS011;8704;52.006;4.374;2023-06-19T04:15:42;16.02;;;13.88;;
17177;SDS011;8704;52.006;4.374;2023-06-19T04:18:14;16.70;;;14.23;;
17177;SDS011;8704;52.006;4.374;2023-06-19T04:20:42;19.40;;;15.43;;
17177;SDS011;8704;52.006;4.374;2023-06-19T04:23:10;19.77;;;17.67;;
17177;SDS011;8704;52.006;4.374;2023-06-19T04:25:39;18.67;;;16.70;;
17177;SDS011;8704;52.006;4.374;2023-06-19T04:28:06;19.73;;;17.63;;
17177;SDS011;8704;52.006;4.374;2023-06-19T04:30:36;20.23;;;17.95;;
17177;SDS011;8704;52.006;4.374;2023-06-19T04:33:05;20.58;;;18.25;;
17177;SDS011;8704;52.006;4.374;2023-06-19T04:35:35;20.95;;;17.88;;
17177;SDS011;8704;52.006;4.374;2023-06-19T04:38:06;22.75;;;18.63;;
17177;SDS011;8704;52.006;4.374;2023-06-19T04:40:34;22.30;;;17.88;;
17177;SDS011;8704;52.006;4.374;2023-06-19T04:43:02;22.55;;;19.17;;
17177;SDS011;8704;52.006;4.374;2023-06-19T04:45:32;21.17;;;17.20;;
17177;SDS011;8704;52.006;4.374;2023-06-19T04:48:01;21.60;;;17.95;;
17177;SDS011;8704;52.006;4.374;2023-06-19T04:50:29;22.13;;;17.92;;
17177;SDS011;8704;52.006;4.374;2023-06-19T04:52:57;23.25;;;16.83;;
17177;SDS011;8704;52.006;4.374;2023-06-19T04:55:25;22.77;;;17.52;;
17177;SDS011;8704;52.006;4.374;2023-06-19T04:57:53;23.90;;;18.15;;
17177;SDS011;8704;52.006;4.374;2023-06-19T05:00:22;22.67;;;19.63;;
17177;SDS011;8704;52.006;4.374;2023-06-19T05:02:51;25.77;;;20.08;;
17177;SDS011;8704;52.006;4.374;2023-06-19T05:05:20;27.52;;;20.58;;
17177;SDS011;8704;52.006;4.374;2023-06-19T05:07:50;27.27;;;22.40;;
17177;SDS011;8704;52.006;4.374;2023-06-19T05:10:18;27.98;;;23.67;;
17177;SDS011;8704;52.006;4.374;2023-06-19T05:12:46;28.80;;;23.52;;
17177;SDS011;8704;52.006;4.374;2023-06-19T05:15:14;32.33;;;23.90;;
17177;SDS011;8704;52.006;4.374;2023-06-19T05:17:42;29.90;;;25.10;;
17177;SDS011;8704;52.006;4.374;2023-06-19T05:20:13;25.23;;;22.50;;
17177;SDS011;8704;52.006;4.374;2023-06-19T05:22:42;28.30;;;23.63;;
17177;SDS011;8704;52.006;4.374;2023-06-19T05:25:10;27.17;;;23.27;;
17177;SDS011;8704;52.006;4.374;2023-06-19T05:27:38;28.20;;;22.50;;
17177;SDS011;8704;52.006;4.374;2023-06-19T05:30:07;24.10;;;20.85;;
17177;SDS011;8704;52.006;4.374;2023-06-19T05:32:35;25.08;;;22.52;;
17177;SDS011;8704;52.006;4.374;2023-06-19T05:35:04;26.65;;;22.98;;
17177;SDS011;8704;52.006;4.374;2023-06-19T05:37:33;27.80;;;23.55;;
17177;SDS011;8704;52.006;4.374;2023-06-19T05:40:03;28.27;;;24.42;;
17177;SDS011;8704;52.006;4.374;2023-06-19T05:42:32;28.80;;;23.98;;
17177;SDS011;8704;52.006;4.374;2023-06-19T05:45:00;28.77;;;25.63;;
17177;SDS011;8704;52.006;4.374;2023-06-19T05:47:28;29.95;;;25.10;;
17177;SDS011;8704;52.006;4.374;2023-06-19T05:49:56;30.40;;;26.98;;
17177;SDS011;8704;52.006;4.374;2023-06-19T05:52:25;30.50;;;26.67;;
17177;SDS011;8704;52.006;4.374;2023-06-19T05:54:53;34.67;;;25.88;;
17177;SDS011;8704;52.006;4.374;2023-06-19T05:57:23;30.67;;;24.88;;
17177;SDS011;8704;52.006;4.374;2023-06-19T05:59:51;26.20;;;20.92;;
17177;SDS011;8704;52.006;4.374;2023-06-19T06:02:21;26.45;;;20.60;;
17177;SDS011;8704;52.006;4.374;2023-06-19T06:04:49;23.67;;;19.55;;
17177;SDS011;8704;52.006;4.374;2023-06-19T06:07:17;22.15;;;19.60;;
17177;SDS011;8704;52.006;4.374;2023-06-19T06:09:45;24.92;;;19.23;;
17177;SDS011;8704;52.006;4.374;2023-06-19T06:12:13;21.58;;;19.23;;
17177;SDS011;8704;52.006;4.374;2023-06-19T06:14:43;28.42;;;22.23;;
17177;SDS011;8704;52.006;4.374;2023-06-19T06:17:11;23.38;;;20.88;;
17177;SDS011;8704;52.006;4.374;2023-06-19T06:19:38;24.52;;;20.05;;
17177;SDS011;8704;52.006;4.374;2023-06-19T06:22:06;25.92;;;21.35;;
17177;SDS011;8704;52.006;4.374;2023-06-19T06:24:34;24.88;;;19.48;;
17177;SDS011;8704;52.006;4.374;2023-06-19T06:27:03;23.60;;;20.15;;
17177;SDS011;8704;52.006;4.374;2023-06-19T06:29:31;24.63;;;19.45;;
17177;SDS011;8704;52.006;4.374;2023-06-19T06:32:04;24.55;;;20.77;;
17177;SDS011;8704;52.006;4.374;2023-06-19T06:34:33;24.45;;;19.85;;
17177;SDS011;8704;52.006;4.374;2023-06-19T06:37:01;23.33;;;20.83;;
17177;SDS011;8704;52.006;4.374;2023-06-19T06:39:32;27.15;;;20.70;;
17177;SDS011;8704;52.006;4.374;2023-06-19T06:42:00;24.23;;;20.10;;
17177;SDS011;8704;52.006;4.374;2023-06-19T06:44:28;21.40;;;18.08;;
17177;SDS011;8704;52.006;4.374;2023-06-19T06:46:56;21.85;;;19.42;;
17177;SDS011;8704;52.006;4.374;2023-06-19T06:49:26;21.05;;;17.33;;
17177;SDS011;8704;52.006;4.374;2023-06-19T06:51:54;20.38;;;17.40;;
17177;SDS011;8704;52.006;4.374;2023-06-19T06:54:23;19.92;;;16.67;;
17177;SDS011;8704;52.006;4.374;2023-06-19T06:56:51;23.35;;;17.85;;
17177;SDS011;8704;52.006;4.374;2023-06-19T06:59:23;22.38;;;17.95;;
17177;SDS011;8704;52.006;4.374;2023-06-19T07:01:51;20.85;;;17.88;;
17177;SDS011;8704;52.006;4.374;2023-06-19T07:04:19;21.60;;;17.70;;
17177;SDS011;8704;52.006;4.374;2023-06-19T07:06:48;22.45;;;17.65;;
17177;SDS011;8704;52.006;4.374;2023-06-19T07:09:16;20.58;;;15.35;;
17177;SDS011;8704;52.006;4.374;2023-06-19T07:11:45;19.80;;;15.88;;
17177;SDS011;8704;52.006;4.374;2023-06-19T07:14:13;21.20;;;16.60;;
17177;SDS011;8704;52.006;4.374;2023-06-19T07:16:44;19.88;;;16.42;;
17177;SDS011;8704;52.006;4.374;2023-06-19T07:19:12;21.42;;;17.33;;
17177;SDS011;8704;52.006;4.374;2023-06-19T07:21:40;20.45;;;17.25;;
17177;SDS011;8704;52.006;4.374;2023-06-19T07:24:10;20.75;;;16.88;;
17177;SDS011;8704;52.006;4.374;2023-06-19T07:26:38;20.83;;;16.10;;
17177;SDS011;8704;52.006;4.374;2023-06-19T07:29:06;20.90;;;15.57;;
17177;SDS011;8704;52.006;4.374;2023-06-19T07:31:34;17.92;;;15.32;;
17177;SDS011;8704;52.006;4.374;2023-06-19T07:34:02;19.73;;;16.23;;
17177;SDS011;8704;52.006;4.374;2023-06-19T07:36:30;19.65;;;16.50;;
17177;SDS011;8704;52.006;4.374;2023-06-19T07:38:58;21.70;;;16.02;;
17177;SDS011;8704;52.006;4.374;2023-06-19T07:41:29;18.77;;;16.50;;
17177;SDS011;8704;52.006;4.374;2023-06-19T07:43:57;21.60;;;16.17;;
17177;SDS011;8704;52.006;4.374;2023-06-19T07:46:25;22.15;;;17.33;;
17177;SDS011;8704;52.006;4.374;2023-06-19T07:48:53;21.55;;;16.60;;
17177;SDS011;8704;52.006;4.374;2023-06-19T07:51:21;19.52;;;16.15;;
17177;SDS011;8704;52.006;4.374;2023-06-19T07:53:50;22.05;;;16.48;;
17177;SDS011;8704;52.006;4.374;2023-06-19T07:56:18;21.75;;;16.10;;
17177;SDS011;8704;52.006;4.374;2023-06-19T07:58:47;25.50;;;16.45;;
17177;SDS011;8704;52.006;4.374;2023-06-19T08:01:16;19.40;;;16.60;;
17177;SDS011;8704;52.006;4.374;2023-06-19T08:03:44;22.50;;;16.20;;
17177;SDS011;8704;52.006;4.374;2023-06-19T08:06:12;22.30;;;16.38;;
17177;SDS011;8704;52.006;4.374;2023-06-19T08:08:40;17.70;;;15.75;;
17177;SDS011;8704;52.006;4.374;2023-06-19T08:11:08;22.88;;;16.15;;
17177;SDS011;8704;52.006;4.374;2023-06-19T08:13:37;19.00;;;15.20;;
17177;SDS011;8704;52.006;4.374;2023-06-19T08:16:06;18.48;;;13.55;;
17177;SDS011;8704;52.006;4.374;2023-06-19T08:18:34;17.08;;;14.35;;
17177;SDS011;8704;52.006;4.374;2023-06-19T08:21:02;17.85;;;13.15;;
17177;SDS011;8704;52.006;4.374;2023-06-19T08:23:30;19.30;;;13.23;;
17177;SDS011;8704;52.006;4.374;2023-06-19T08:25:58;15.27;;;13.13;;
17177;SDS011;8704;52.006;4.374;2023-06-19T08:28:26;16.45;;;12.43;;
17177;SDS011;8704;52.006;4.374;2023-06-19T08:30:54;18.77;;;12.20;;
17177;SDS011;8704;52.006;4.374;2023-06-19T08:33:24;17.10;;;13.25;;
17177;SDS011;8704;52.006;4.374;2023-06-19T08:35:52;18.20;;;13.52;;
17177;SDS011;8704;52.006;4.374;2023-06-19T08:38:20;17.60;;;13.15;;
17177;SDS011;8704;52.006;4.374;2023-06-19T08:40:48;17.95;;;13.95;;
17177;SDS011;8704;52.006;4.374;2023-06-19T08:43:16;14.68;;;12.38;;
17177;SDS011;8704;52.006;4.374;2023-06-19T08:45:51;17.02;;;12.90;;
17177;SDS011;8704;52.006;4.374;2023-06-19T08:48:23;16.77;;;12.90;;
17177;SDS011;8704;52.006;4.374;2023-06-19T08:50:52;16.13;;;12.90;;
17177;SDS011;8704;52.006;4.374;2023-06-19T08:53:20;16.58;;;12.90;;
17177;SDS011;8704;52.006;4.374;2023-06-19T08:55:49;17.15;;;11.30;;
17177;SDS011;8704;52.006;4.374;2023-06-19T08:58:21;16.75;;;11.27;;
17177;SDS011;8704;52.006;4.374;2023-06-19T09:00:49;15.63;;;11.38;;
17177;SDS011;8704;52.006;4.374;2023-06-19T09:03:19;16.05;;;10.52;;
17177;SDS011;8704;52.006;4.374;2023-06-19T09:05:49;13.02;;;11.10;;
17177;SDS011;8704;52.006;4.374;2023-06-19T09:08:18;15.95;;;11.55;;
17177;SDS011;8704;52.006;4.374;2023-06-19T09:10:54;21.95;;;12.45;;
17177;SDS011;8704;52.006;4.374;2023-06-19T09:13:25;15.13;;;10.63;;
17177;SDS011;8704;52.006;4.374;2023-06-19T09:15:58;15.35;;;10.18;;
17177;SDS011;8704;52.006;4.374;2023-06-19T09:18:28;13.68;;;9.82;;
17177;SDS011;8704;52.006;4.374;2023-06-19T09:20:58;12.85;;;10.60;;
17177;SDS011;8704;52.006;4.374;2023-06-19T09:23:26;11.27;;;10.13;;
17177;SDS011;8704;52.006;4.374;2023-06-19T09:25:56;15.10;;;10.07;;
17177;SDS011;8704;52.006;4.374;2023-06-19T09:28:25;14.77;;;10.05;;
17177;SDS011;8704;52.006;4.374;2023-06-19T09:30:55;12.20;;;10.32;;
17177;SDS011;8704;52.006;4.374;2023-06-19T09:33:25;12.82;;;9.95;;
17177;SDS011;8704;52.006;4.374;2023-06-19T09:35:59;13.77;;;9.70;;
17177;SDS011;8704;52.006;4.374;2023-06-19T09:38:29;14.02;;;9.32;;
17177;SDS011;8704;52.006;4.374;2023-06-19T09:40:59;18.05;;;9.65;;
17177;SDS011;8704;52.006;4.374;2023-06-19T09:43:30;14.00;;;9.35;;
17177;SDS011;8704;52.006;4.374;2023-06-19T09:46:03;14.55;;;9.85;;
17177;SDS011;8704;52.006;4.374;2023-06-19T09:48:33;13.95;;;8.43;;
17177;SDS011;8704;52.006;4.374;2023-06-19T09:51:05;13.13;;;8.15;;
17177;SDS011;8704;52.006;4.374;2023-06-19T09:53:39;10.20;;;7.47;;
17177;SDS011;8704;52.006;4.374;2023-06-19T09:56:07;10.68;;;8.77;;
17177;SDS011;8704;52.006;4.374;2023-06-19T09:58:36;11.63;;;8.77;;
17177;SDS011;8704;52.006;4.374;2023-06-19T10:01:05;12.48;;;8.73;;
17177;SDS011;8704;52.006;4.374;2023-06-19T10:03:35;9.15;;;7.63;;
17177;SDS011;8704;52.006;4.374;2023-06-19T10:06:05;10.48;;;8.20;;
17177;SDS011;8704;52.006;4.374;2023-06-19T10:08:38;11.75;;;8.90;;
17177;SDS011;8704;52.006;4.374;2023-06-19T10:11:08;10.73;;;7.90;;
17177;SDS011;8704;52.006;4.374;2023-06-19T10:13:37;10.63;;;7.63;;
17177;SDS011;8704;52.006;4.374;2023-06-19T10:16:07;10.98;;;7.63;;
17177;SDS011;8704;52.006;4.374;2023-06-19T10:18:47;10.27;;;7.10;;
17177;SDS011;8704;52.006;4.374;2023-06-19T10:21:17;10.60;;;7.47;;
17177;SDS011;8704;52.006;4.374;2023-06-19T10:23:52;12.05;;;7.70;;
17177;SDS011;8704;52.006;4.374;2023-06-19T10:26:29;10.77;;;6.63;;
17177;SDS011;8704;52.006;4.374;2023-06-19T10:28:58;9.60;;;7.45;;
17177;SDS011;8704;52.006;4.374;2023-06-19T10:31:26;9.00;;;7.55;;
17177;SDS011;8704;52.006;4.374;2023-06-19T10:33:55;12.57;;;8.07;;
17177;SDS011;8704;52.006;4.374;2023-06-19T10:36:26;10.48;;;8.30;;
17177;SDS011;8704;52.006;4.374;2023-06-19T10:38:54;10.10;;;7.80;;
17177;SDS011;8704;52.006;4.374;2023-06-19T10:41:23;15.25;;;9.52;;
17177;SDS011;8704;52.006;4.374;2023-06-19T10:43:53;11.65;;;8.65;;
17177;SDS011;8704;52.006;4.374;2023-06-19T10:46:23;12.02;;;8.75;;
17177;SDS011;8704;52.006;4.374;2023-06-19T10:48:52;13.13;;;8.50;;
17177;SDS011;8704;52.006;4.374;2023-06-19T10:51:27;13.48;;;7.95;;
17177;SDS011;8704;52.006;4.374;2023-06-19T10:53:55;12.35;;;7.18;;
17177;SDS011;8704;52.006;4.374;2023-06-19T10:56:24;9.23;;;7.47;;
17177;SDS011;8704;52.006;4.374;2023-06-19T10:58:59;11.77;;;7.50;;
17177;SDS011;8704;52.006;4.374;2023-06-19T11:01:31;11.02;;;7.10;;
17177;SDS011;8704;52.006;4.374;2023-06-19T11:04:04;11.70;;;7.75;;
17177;SDS011;8704;52.006;4.374;2023-06-19T11:06:34;11.48;;;8.50;;
17177;SDS011;8704;52.006;4.374;2023-06-19T11:09:03;10.57;;;9.35;;
17177;SDS011;8704;52.006;4.374;2023-06-19T11:11:35;11.27;;;8.75;;
17177;SDS011;8704;52.006;4.374;2023-06-19T11:14:04;12.73;;;9.88;;
17177;SDS011;8704;52.006;4.374;2023-06-19T11:16:33;11.18;;;9.52;;
17177;SDS011;8704;52.006;4.374;2023-06-19T11:19:02;13.13;;;9.70;;
17177;SDS011;8704;52.006;4.374;2023-06-19T11:21:30;11.13;;;9.63;;
17177;SDS011;8704;52.006;4.374;2023-06-19T11:24:02;15.15;;;11.73;;
17177;SDS011;8704;52.006;4.374;2023-06-19T11:26:34;12.63;;;11.32;;
17177;SDS011;8704;52.006;4.374;2023-06-19T11:31:40;14.48;;;12.43;;
17177;SDS011;8704;52.006;4.374;2023-06-19T11:34:08;13.00;;;11.60;;
17177;SDS011;8704;52.006;4.374;2023-06-19T11:36:39;13.80;;;12.38;;
17177;SDS011;8704;52.006;4.374;2023-06-19T11:39:11;15.02;;;13.40;;
17177;SDS011;8704;52.006;4.374;2023-06-19T11:41:40;16.77;;;13.55;;
17177;SDS011;8704;52.006;4.374;2023-06-19T11:44:10;16.50;;;12.52;;
17177;SDS011;8704;52.006;4.374;2023-06-19T11:46:38;13.35;;;11.43;;
17177;SDS011;8704;52.006;4.374;2023-06-19T11:49:07;13.80;;;12.13;;
17177;SDS011;8704;52.006;4.374;2023-06-19T11:51:36;13.30;;;10.88;;
17177;SDS011;8704;52.006;4.374;2023-06-19T11:54:05;12.57;;;10.68;;
17177;SDS011;8704;52.006;4.374;2023-06-19T11:56:37;14.40;;;12.00;;
17177;SDS011;8704;52.006;4.374;2023-06-19T11:59:05;14.55;;;11.88;;
17177;SDS011;8704;52.006;4.374;2023-06-19T12:01:34;13.70;;;12.27;;
17177;SDS011;8704;52.006;4.374;2023-06-19T12:04:03;13.45;;;11.45;;
17177;SDS011;8704;52.006;4.374;2023-06-19T12:06:32;14.13;;;12.02;;
17177;SDS011;8704;52.006;4.374;2023-06-19T12:09:01;14.77;;;12.30;;
17177;SDS011;8704;52.006;4.374;2023-06-19T12:11:31;12.15;;;10.93;;
17177;SDS011;8704;52.006;4.374;2023-06-19T12:14:00;12.80;;;11.45;;
17177;SDS011;8704;52.006;4.374;2023-06-19T12:16:28;12.43;;;10.80;;
17177;SDS011;8704;52.006;4.374;2023-06-19T12:18:56;13.45;;;11.20;;
17177;SDS011;8704;52.006;4.374;2023-06-19T12:21:24;12.23;;;10.75;;
17177;SDS011;8704;52.006;4.374;2023-06-19T12:24:04;15.00;;;12.07;;
17177;SDS011;8704;52.006;4.374;2023-06-19T12:26:33;15.00;;;11.63;;
17177;SDS011;8704;52.006;4.374;2023-06-19T12:29:05;15.27;;;11.77;;
17177;SDS011;8704;52.006;4.374;2023-06-19T12:31:34;14.27;;;10.90;;
17177;SDS011;8704;52.006;4.374;2023-06-19T12:34:03;13.43;;;10.82;;
17177;SDS011;8704;52.006;4.374;2023-06-19T12:36:35;14.77;;;9.95;;
17177;SDS011;8704;52.006;4.374;2023-06-19T12:39:03;14.38;;;9.55;;
17177;SDS011;8704;52.006;4.374;2023-06-19T12:41:42;11.90;;;9.18;;
17177;SDS011;8704;52.006;4.374;2023-06-19T12:44:12;15.07;;;9.52;;
17177;SDS011;8704;52.006;4.374;2023-06-19T12:46:40;10.48;;;8.82;;
17177;SDS011;8704;52.006;4.374;2023-06-19T12:49:08;10.73;;;7.82;;
17177;SDS011;8704;52.006;4.374;2023-06-19T12:51:36;10.88;;;7.72;;
17177;SDS011;8704;52.006;4.374;2023-06-19T12:54:04;9.57;;;7.80;;
17177;SDS011;8704;52.006;4.374;2023-06-19T12:56:32;10.13;;;7.72;;
17177;SDS011;8704;52.006;4.374;2023-06-19T12:59:00;9.30;;;6.72;;
17177;SDS011;8704;52.006;4.374;2023-06-19T13:01:30;9.88;;;6.30;;
17177;SDS011;8704;52.006;4.374;2023-06-19T13:03:58;9.98;;;6.63;;
17177;SDS011;8704;52.006;4.374;2023-06-19T13:06:26;8.93;;;6.10;;
17177;SDS011;8704;52.006;4.374;2023-06-19T13:08:54;10.13;;;6.13;;
17177;SDS011;8704;52.006;4.374;2023-06-19T13:11:22;8.52;;;6.47;;
17177;SDS011;8704;52.006;4.374;2023-06-19T13:13:51;9.25;;;6.05;;
17177;SDS011;8704;52.006;4.374;2023-06-19T13:16:19;10.75;;;6.60;;
17177;SDS011;8704;52.006;4.374;2023-06-19T13:19:09;9.80;;;6.10;;
17177;SDS011;8704;52.006;4.374;2023-06-19T13:21:37;8.13;;;5.80;;
17177;SDS011;8704;52.006;4.374;2023-06-19T13:24:06;9.10;;;6.45;;
17177;SDS011;8704;52.006;4.374;2023-06-19T13:26:34;16.90;;;7.72;;
17177;SDS011;8704;52.006;4.374;2023-06-19T13:29:03;9.73;;;6.82;;
17177;SDS011;8704;52.006;4.374;2023-06-19T13:31:31;8.20;;;6.00;;
17177;SDS011;8704;52.006;4.374;2023-06-19T13:33:59;8.10;;;5.88;;
17177;SDS011;8704;52.006;4.374;2023-06-19T13:36:29;8.73;;;6.13;;
17177;SDS011;8704;52.006;4.374;2023-06-19T13:38:57;10.55;;;6.57;;
17177;SDS011;8704;52.006;4.374;2023-06-19T13:41:25;10.70;;;6.65;;
17177;SDS011;8704;52.006;4.374;2023-06-19T13:43:54;9.65;;;5.63;;
17177;SDS011;8704;52.006;4.374;2023-06-19T13:46:22;8.23;;;5.72;;
17177;SDS011;8704;52.006;4.374;2023-06-19T13:48:50;10.98;;;6.68;;
17177;SDS011;8704;52.006;4.374;2023-06-19T13:51:19;7.72;;;6.10;;
17177;SDS011;8704;52.006;4.374;2023-06-19T13:53:49;7.65;;;6.20;;
17177;SDS011;8704;52.006;4.374;2023-06-19T13:56:18;7.60;;;5.90;;
17177;SDS011;8704;52.006;4.374;2023-06-19T13:58:46;8.88;;;6.03;;
17177;SDS011;8704;52.006;4.374;2023-06-19T14:01:14;9.18;;;5.57;;
17177;SDS011;8704;52.006;4.374;2023-06-19T14:03:43;7.10;;;5.40;;
17177;SDS011;8704;52.006;4.374;2023-06-19T14:06:11;7.38;;;5.22;;
17177;SDS011;8704;52.006;4.374;2023-06-19T14:08:39;6.68;;;5.25;;
17177;SDS011;8704;52.006;4.374;2023-06-19T14:11:08;9.00;;;5.57;;
17177;SDS011;8704;52.006;4.374;2023-06-19T14:13:37;7.53;;;5.47;;
17177;SDS011;8704;52.006;4.374;2023-06-19T14:16:05;7.45;;;5.35;;
17177;SDS011;8704;52.006;4.374;2023-06-19T14:18:33;7.28;;;6.03;;
17177;SDS011;8704;52.006;4.374;2023-06-19T14:21:03;8.32;;;6.10;;
17177;SDS011;8704;52.006;4.374;2023-06-19T14:23:31;9.07;;;6.38;;
17177;SDS011;8704;52.006;4.374;2023-06-19T14:26:00;10.98;;;6.60;;
17177;SDS011;8704;52.006;4.374;2023-06-19T14:28:29;8.98;;;6.35;;
17177;SDS011;8704;52.006;4.374;2023-06-19T14:30:57;9.18;;;6.30;;
17177;SDS011;8704;52.006;4.374;2023-06-19T14:33:25;8.60;;;5.88;;
17177;SDS011;8704;52.006;4.374;2023-06-19T14:35:53;7.28;;;5.75;;
17177;SDS011;8704;52.006;4.374;2023-06-19T14:38:22;7.85;;;5.90;;
17177;SDS011;8704;52.006;4.374;2023-06-19T14:40:51;8.77;;;6.50;;
17177;SDS011;8704;52.006;4.374;2023-06-19T14:43:19;10.45;;;6.82;;
17177;SDS011;8704;52.006;4.374;2023-06-19T14:45:48;8.30;;;6.80;;
17177;SDS011;8704;52.006;4.374;2023-06-19T14:48:16;10.93;;;6.45;;
17177;SDS011;8704;52.006;4.374;2023-06-19T14:50:45;8.95;;;6.72;;
17177;SDS011;8704;52.006;4.374;2023-06-19T14:53:13;10.20;;;7.35;;
17177;SDS011;8704;52.006;4.374;2023-06-19T14:55:41;11.20;;;7.13;;
17177;SDS011;8704;52.006;4.374;2023-06-19T14:58:12;10.02;;;6.80;;